Carson, CA

7:19 PM PDT on August 21, 2014 (GMT -0700)
Goodyear Blimp Base | Change Station
CLOSE
Current Station
Personal Weather Station
Location: Gardena, CA
Elevation: 65 ft
Nearby Weather Stations
Active Advisory: Beach Hazard Statement

Elev 65 ft 33.86 °N, 118.28 °W | Updated 9 seconds ago

Partly Cloudy
Partly Cloudy
73.2 °F
Feels Like 76 °F
N
9.0
Wind Variable Wind from West
Gusts 23.0 mph

Today
High -- | Low -- °F
--% Chance of Precip.
Yesterday
High -- | Low -- °F
Precip. -- in
6:19 AM 7:32 PM
Waning Crescent, 11% visible
Pressure 29.90 in
Visibility 10.0 miles
Clouds Few 20000 ft
Heat Index 76 °F
Dew Point 34 °F
Humidity 24%
Rainfall 0.00 in
Snow Depth Not available.
UV 0.0 out of 12
Pollen 5.40 out of 12
Ozone Good
Flu Activity Not available.
METAR KTOA 220150Z 28010KT 10SM FEW200 23/18 A2990

More Conditions Fewer Conditions

Pressure 29.90 in
Visibility 10.0 miles
Clouds Few 20000 ft
Heat Index 76 °F
Dew Point 34 °F
Humidity 24%
Rainfall 0.00 in
Snow Depth Not available.
UV 0.0 out of 12
Pollen 5.40 out of 12
Ozone Good
Flu Activity Not available.
METAR KTOA 220150Z 28010KT 10SM FEW200 23/18 A2990

More Conditions Fewer Conditions

10-Day Weather Forecast

Almanac

Astronomy

Aug. 21, 2014 Rise Set
Actual Time 6:19 AM PDT 7:32 PM PDT
Civil Twilight 5:53 AM PDT 7:58 PM PDT
Nautical Twilight 5:22 AM PDT 8:29 PM PDT
Astronomical Twilight 4:49 AM PDT 9:01 PM PDT
Moon 2:58 AM PDT (8/21) 5:00 PM PDT (8/21)
Length of Visible Light 14h 05m
Length of Day
13h 13m
Tomorrow will be 1m 54s shorter.
Waning Crescent, 11% of the Moon is Illuminated
Today
Waning Crescent
Aug 25
New
Sep 2
First Quarter
Sep 8
Full
Sep 15
Last Quarter

Today's Extremes

State Highs State Lows

Community

WunderPhotos

Upload Photos

1,746,106 photos uploaded!

WunderBlogs® & News

Nearby

Air Quality

  Air Quality AQ Index Pollutant
Yesterday Good
OZONE
Current Good
OZONE
Friday Good
PM10
Friday Good
OZONE
Friday Good
CO
Friday Good
NO2

Snow Depth

Station Depth Elevation
Leavitt Lake 0 in 9400 ft
Leavitt Meadows 0 in 7200 ft
CSS Lab 0 in 6900 ft
Adin Mountain 0 in 6200 ft

Earthquake Activity

City Distance Mag. Time & Date
Malibu Beach, California 27 miles 3.4 10:03 AM PDT
2014-08-15
Yucca Valley, California 109 miles 3.8 8:57 PM PDT
2014-08-14
Minimum magnitude displayed is 2.5.

Coastal Water Temperatures

Place Temperature
Santa Monica Pier 71.1 °F
Los Angeles, CA 68.0 °F
La Jolla, CA 68.0 °F

Nearby Weather Stations